Time;durP1;ratioP1;P1;durP2;ratioP2;P2;SDS_P1;SDS_P2;PMS_P1;PMS_P2;Temp;Humidity;BMP_temperature;BMP_pressure;BME280_temperature;BME280_humidity;BME280_pressure;Samples;Min_cycle;Max_cycle;Signal;HPM_P1;HPM_P2
2022/11/19 00:01:18;;;;;;;13.68;5.90;;;1.70;99.90;;;;;;4946825;28;20499;-90
2022/11/19 00:03:44;;;;;;;12.80;6.15;;;1.70;99.90;;;;;;4931772;29;20412;-91
2022/11/19 00:06:15;;;;;;;14.23;6.70;;;1.70;99.90;;;;;;4940061;28;20042;-94
2022/11/19 00:08:41;;;;;;;12.23;6.40;;;1.70;99.90;;;;;;4935357;28;20031;-93
2022/11/19 00:11:12;;;;;;;12.75;6.07;;;1.70;99.90;;;;;;4934918;28;20051;-91
2022/11/19 00:13:40;;;;;;;14.52;6.78;;;1.70;99.90;;;;;;4935186;28;20042;-89
2022/11/19 00:16:08;;;;;;;12.00;5.55;;;1.80;99.90;;;;;;4946454;28;20057;-94
2022/11/19 00:18:34;;;;;;;11.93;5.78;;;1.80;99.90;;;;;;4933290;28;20176;-94
2022/11/19 00:21:09;;;;;;;13.15;5.78;;;1.80;99.90;;;;;;4944672;28;20074;-90
2022/11/19 00:23:35;;;;;;;12.25;5.35;;;1.80;99.90;;;;;;4944669;28;20046;-90
2022/11/19 00:26:09;;;;;;;11.70;5.70;;;1.70;99.90;;;;;;4972533;28;20078;-95
2022/11/19 00:28:36;;;;;;;11.07;5.22;;;1.70;99.90;;;;;;4937672;28;20062;-95
2022/11/19 00:31:07;;;;;;;12.90;4.97;;;1.70;99.90;;;;;;4936455;28;20054;-93
2022/11/19 00:33:33;;;;;;;;;;;1.70;99.90;;;;;;4960995;28;20150;-90
2022/11/19 00:36:00;;;;;;;13.02;5.60;;;1.70;99.90;;;;;;4937268;28;19961;-93
2022/11/19 00:38:27;;;;;;;11.95;5.70;;;1.70;99.90;;;;;;4936893;28;20205;-92
2022/11/19 00:40:53;;;;;;;8.88;4.35;;;1.70;99.90;;;;;;4948904;28;20122;-92
2022/11/19 00:46:04;;;;;;;11.30;4.93;;;1.70;99.90;;;;;;4975240;28;20047;-94
2022/11/19 00:48:29;;;;;;;10.25;4.68;;;1.60;99.90;;;;;;4932342;28;20043;-89
2022/11/19 00:50:55;;;;;;;11.98;4.40;;;1.70;99.90;;;;;;4936221;28;20137;-93
2022/11/19 00:53:21;;;;;;;10.38;4.18;;;1.60;99.90;;;;;;4934218;29;20043;-90
2022/11/19 00:55:46;;;;;;;9.25;3.72;;;1.60;99.90;;;;;;4956851;28;20381;-93
2022/11/19 00:58:12;;;;;;;9.63;3.75;;;1.60;99.90;;;;;;4935813;28;20476;-91
2022/11/19 01:00:38;;;;;;;10.40;4.35;;;1.60;99.90;;;;;;4940956;28;20034;-91
2022/11/19 01:03:04;;;;;;;8.00;3.70;;;1.60;99.90;;;;;;4950308;28;20047;-91
2022/11/19 01:05:30;;;;;;;10.65;4.45;;;1.60;99.90;;;;;;4960346;28;20035;-92
2022/11/19 01:07:56;;;;;;;9.65;3.65;;;1.50;99.90;;;;;;4954682;28;20038;-92
2022/11/19 01:10:22;;;;;;;8.40;3.58;;;1.60;99.90;;;;;;4982208;28;20039;-94
2022/11/19 01:15:31;;;;;;;9.38;3.38;;;1.50;99.90;;;;;;4973645;28;20155;-94
2022/11/19 01:17:57;;;;;;;9.35;4.18;;;1.50;99.90;;;;;;4949560;28;21325;-94
2022/11/19 01:20:23;;;;;;;8.85;3.80;;;1.50;99.90;;;;;;4931317;28;20070;-91
2022/11/19 01:22:48;;;;;;;8.45;3.47;;;1.50;99.90;;;;;;4941034;28;20054;-89
2022/11/19 01:25:14;;;;;;;8.38;3.40;;;1.50;99.90;;;;;;4952800;28;20042;-95
2022/11/19 01:27:40;;;;;;;7.72;3.35;;;1.40;99.90;;;;;;4950918;28;20058;-92
2022/11/19 01:30:06;;;;;;;8.65;3.78;;;1.40;99.90;;;;;;4959151;28;20089;-93
2022/11/19 01:32:35;;;;;;;9.95;4.00;;;1.40;99.90;;;;;;4934898;28;20141;-93
2022/11/19 01:35:01;;;;;;;7.82;3.38;;;1.30;99.90;;;;;;4949680;28;20098;-89
2022/11/19 01:37:26;;;;;;;9.43;3.70;;;1.30;99.90;;;;;;4977110;28;20035;-94
2022/11/19 01:39:52;;;;;;;9.32;4.05;;;1.20;99.90;;;;;;4979732;28;20035;-91
2022/11/19 01:45:28;;;;;;;7.72;3.22;;;1.10;99.90;;;;;;4974098;28;20055;-92
2022/11/19 01:47:56;;;;;;;7.78;3.63;;;1.10;99.90;;;;;;4958269;28;20130;-93
2022/11/19 01:50:24;;;;;;;10.50;3.50;;;1.10;99.90;;;;;;4958349;28;20043;-92
2022/11/19 01:52:50;;;;;;;8.93;3.47;;;1.00;99.90;;;;;;4939585;28;20458;-93
2022/11/19 01:55:17;;;;;;;9.18;3.50;;;1.00;99.90;;;;;;4937427;28;20248;-95
2022/11/19 01:57:43;;;;;;;8.85;3.33;;;0.90;99.90;;;;;;4980838;28;20022;-91
2022/11/19 02:00:09;;;;;;;8.10;3.22;;;0.90;99.90;;;;;;4958365;28;20031;-92
2022/11/19 02:02:35;;;;;;;10.93;4.07;;;0.90;99.90;;;;;;4968326;28;20130;-94
2022/11/19 02:05:02;;;;;;;9.75;3.33;;;0.90;99.90;;;;;;4964953;28;20054;-94
2022/11/19 02:07:32;;;;;;;9.45;3.63;;;0.80;99.90;;;;;;4953975;28;20133;-92
2022/11/19 02:10:00;;;;;;;8.40;3.60;;;0.80;99.90;;;;;;4941728;28;20046;-94
2022/11/19 02:12:37;;;;;;;9.43;3.47;;;0.80;99.90;;;;;;4935904;28;20046;-91
2022/11/19 02:15:22;;;;;;;7.00;2.75;;;0.80;99.90;;;;;;4954088;28;20133;-94
2022/11/19 02:18:16;;;;;;;10.75;3.60;;;0.80;99.90;;;;;;4933346;28;20148;-93
2022/11/19 02:20:49;;;;;;;8.85;3.72;;;0.70;99.90;;;;;;4969647;28;20038;-93
2022/11/19 02:23:36;;;;;;;8.00;3.35;;;0.70;99.90;;;;;;4960397;28;20050;-92
2022/11/19 02:26:43;;;;;;;9.60;3.83;;;0.70;99.90;;;;;;4941749;28;20055;-92
2022/11/19 02:29:30;;;;;;;8.57;3.50;;;0.70;99.90;;;;;;4969314;28;20057;-92
2022/11/19 02:32:20;;;;;;;8.05;3.58;;;0.60;99.90;;;;;;4945750;28;20035;-93
2022/11/19 02:35:12;;;;;;;11.15;4.20;;;0.60;99.90;;;;;;4939680;28;20031;-90
2022/11/19 02:37:48;;;;;;;10.30;4.00;;;0.60;99.90;;;;;;4972710;28;20050;-96
2022/11/19 02:40:27;;;;;;;8.48;3.28;;;0.60;99.90;;;;;;4952308;28;20058;-92
2022/11/19 02:43:09;;;;;;;9.25;3.88;;;0.50;99.90;;;;;;4950492;28;20054;-94
2022/11/19 02:45:49;;;;;;;8.77;2.85;;;0.50;99.90;;;;;;4951861;28;20050;-93
2022/11/19 02:48:33;;;;;;;7.57;2.90;;;0.50;99.90;;;;;;4970738;28;20045;-93
2022/11/19 02:51:02;;;;;;;8.43;3.42;;;0.40;99.90;;;;;;4942237;29;20063;-93
2022/11/19 02:53:29;;;;;;;9.98;3.72;;;0.40;99.90;;;;;;4939326;28;20066;-92
2022/11/19 02:56:12;;;;;;;8.00;2.80;;;0.40;99.90;;;;;;4936584;28;20049;-94
2022/11/19 03:04:29;;;;;;;6.95;2.75;;;0.40;99.90;;;;;;4954715;28;20105;-91
2022/11/19 03:06:58;;;;;;;8.95;3.33;;;0.40;99.90;;;;;;4957725;28;20533;-90
2022/11/19 03:09:25;;;;;;;7.85;3.17;;;0.30;99.90;;;;;;4947044;28;20046;-93
2022/11/19 03:12:21;;;;;;;8.00;3.17;;;0.30;99.90;;;;;;4940155;28;20053;-93
2022/11/19 03:18:06;;;;;;;8.82;3.55;;;0.30;99.90;;;;;;4954894;28;20181;-94
2022/11/19 03:20:39;;;;;;;9.13;3.30;;;0.30;99.90;;;;;;4931452;28;20039;-92
2022/11/19 03:23:21;;;;;;;8.60;3.10;;;0.30;99.90;;;;;;4933887;28;20137;-92
2022/11/19 03:25:57;;;;;;;9.73;3.53;;;0.30;99.90;;;;;;4947678;29;20102;-91
2022/11/19 03:28:28;;;;;;;7.10;2.92;;;0.20;99.90;;;;;;4927426;29;20043;-91
2022/11/19 03:30:55;;;;;;;8.18;2.95;;;0.20;99.90;;;;;;4956394;29;20019;-93
2022/11/19 03:33:38;;;;;;;8.70;4.15;;;0.10;99.90;;;;;;4953039;29;20044;-89
2022/11/19 03:36:17;;;;;;;9.45;2.70;;;0.10;99.90;;;;;;4934318;29;20044;-94
2022/11/19 03:38:49;;;;;;;8.50;3.25;;;0.10;99.90;;;;;;4927683;29;20078;-89
2022/11/19 03:41:17;;;;;;;8.35;2.60;;;0.00;99.90;;;;;;4925546;29;20040;-95
2022/11/19 03:43:50;;;;;;;8.38;3.20;;;0.10;99.90;;;;;;4927745;29;20047;-93
2022/11/19 03:46:19;;;;;;;8.00;2.75;;;0.00;99.90;;;;;;4926989;29;20067;-95
2022/11/19 03:48:49;;;;;;;9.32;2.83;;;0.00;99.90;;;;;;4939893;29;20040;-92
2022/11/19 03:51:29;;;;;;;9.18;2.92;;;0.00;99.90;;;;;;4928904;29;20071;-91
2022/11/19 03:53:55;;;;;;;6.43;2.65;;;-0.10;99.90;;;;;;4945769;29;20074;-93
2022/11/19 03:56:25;;;;;;;7.63;2.92;;;0.00;99.90;;;;;;4926031;29;20040;-93
2022/11/19 03:58:54;;;;;;;8.27;3.20;;;-0.10;99.90;;;;;;4923921;29;20036;-94
2022/11/19 04:01:20;;;;;;;8.25;3.22;;;-0.10;99.90;;;;;;4942488;29;20051;-92
2022/11/19 04:04:34;;;;;;;9.35;3.50;;;-0.10;99.90;;;;;;4960213;28;20051;-90
2022/11/19 04:06:31;;;;;;;7.90;3.15;;;-0.20;99.90;;;;;;4956119;28;20441;-94
2022/11/19 04:08:57;;;;;;;8.65;3.63;;;-0.20;99.90;;;;;;4940125;29;20081;-93
2022/11/19 04:11:23;;;;;;;7.60;3.30;;;-0.20;99.90;;;;;;4928213;29;20065;-92
2022/11/19 04:13:48;;;;;;;8.25;3.35;;;-0.20;99.90;;;;;;4938275;29;20041;-94
2022/11/19 04:16:14;;;;;;;9.07;3.45;;;-0.20;99.90;;;;;;4924684;29;20044;-89
2022/11/19 04:18:40;;;;;;;8.57;3.30;;;-0.30;99.90;;;;;;4929087;29;20071;-93
2022/11/19 04:21:05;;;;;;;7.95;3.13;;;-0.30;99.90;;;;;;4920028;29;20104;-89
2022/11/19 04:23:31;;;;;;;9.98;3.55;;;-0.30;99.90;;;;;;4936802;29;20045;-95
2022/11/19 04:25:57;;;;;;;8.27;3.05;;;-0.30;99.90;;;;;;4926210;29;20064;-93
2022/11/19 04:28:22;;;;;;;8.63;3.40;;;-0.30;99.90;;;;;;4941533;29;20074;-91
2022/11/19 04:30:48;;;;;;;8.35;3.22;;;-0.30;99.90;;;;;;4942549;28;20186;-87
2022/11/19 04:33:13;;;;;;;8.82;3.75;;;-0.30;99.90;;;;;;4940568;29;20063;-89
2022/11/19 04:35:42;;;;;;;7.18;2.92;;;-0.30;99.90;;;;;;4942660;29;20408;-89
2022/11/19 04:38:08;;;;;;;7.15;2.83;;;-0.40;99.90;;;;;;4937491;29;20414;-88
2022/11/19 04:40:33;;;;;;;7.80;4.22;;;-0.40;99.90;;;;;;4925210;29;20051;-86
2022/11/19 04:42:59;;;;;;;8.18;3.30;;;-0.30;99.90;;;;;;4961755;28;20072;-89
2022/11/19 04:45:25;;;;;;;6.65;2.50;;;-0.40;99.90;;;;;;4938223;29;20420;-86
2022/11/19 04:47:51;;;;;;;8.55;3.38;;;-0.40;99.90;;;;;;4962130;28;20265;-88
2022/11/19 04:50:16;;;;;;;8.15;3.42;;;-0.40;99.90;;;;;;4923745;29;20055;-90
2022/11/19 04:52:42;;;;;;;8.43;3.30;;;-0.50;99.90;;;;;;4917319;29;20035;-86
2022/11/19 04:55:09;;;;;;;7.38;3.10;;;-0.50;99.90;;;;;;4938780;28;20050;-85
2022/11/19 04:57:35;;;;;;;7.32;3.30;;;-0.40;99.90;;;;;;4935814;29;20174;-92
2022/11/19 05:00:01;;;;;;;7.18;2.80;;;-0.50;99.90;;;;;;4926417;29;20123;-90
2022/11/19 05:02:26;;;;;;;9.38;3.13;;;-0.50;99.90;;;;;;4926831;29;20089;-90
2022/11/19 05:04:52;;;;;;;8.57;3.05;;;-0.50;99.90;;;;;;4938665;29;20067;-89
2022/11/19 05:07:17;;;;;;;8.68;3.65;;;-0.50;99.90;;;;;;4948653;29;20050;-87
2022/11/19 05:09:43;;;;;;;7.72;3.10;;;-0.60;99.90;;;;;;4938020;29;20126;-86
2022/11/19 05:12:08;;;;;;;8.60;3.10;;;-0.60;99.90;;;;;;4938383;29;20047;-90
2022/11/19 05:14:37;;;;;;;8.65;3.50;;;-0.60;99.90;;;;;;4942350;28;20047;-88
2022/11/19 05:17:03;;;;;;;8.88;3.10;;;-0.60;99.90;;;;;;4929646;29;20047;-89
2022/11/19 05:19:29;;;;;;;8.45;3.13;;;-0.60;99.90;;;;;;4950060;28;20043;-89
2022/11/19 05:21:54;;;;;;;9.23;3.17;;;-0.60;99.90;;;;;;4938319;29;20138;-87
2022/11/19 05:24:20;;;;;;;8.98;3.47;;;-0.60;99.90;;;;;;4938252;28;20047;-86
2022/11/19 05:26:45;;;;;;;9.20;3.17;;;-0.70;99.90;;;;;;4940281;29;20051;-90
2022/11/19 05:29:11;;;;;;;10.40;4.00;;;-0.70;99.90;;;;;;4930902;29;20043;-87
2022/11/19 05:31:37;;;;;;;7.75;2.97;;;-0.70;99.90;;;;;;4943321;28;20052;-85
2022/11/19 05:34:02;;;;;;;10.63;4.00;;;-0.70;99.90;;;;;;4943039;29;20069;-87
2022/11/19 05:36:28;;;;;;;7.82;2.78;;;-0.70;99.90;;;;;;4936001;29;20637;-89
2022/11/19 05:38:54;;;;;;;9.25;3.42;;;-0.80;99.90;;;;;;4941725;29;20036;-87
2022/11/19 05:41:19;;;;;;;9.68;3.75;;;-0.70;99.90;;;;;;4947474;28;20062;-89
2022/11/19 05:43:45;;;;;;;9.43;4.18;;;-0.70;99.90;;;;;;4946570;29;20086;-92
2022/11/19 05:46:10;;;;;;;8.80;3.85;;;-0.80;99.90;;;;;;4928360;29;20501;-86
2022/11/19 05:48:36;;;;;;;8.90;4.20;;;-0.80;99.90;;;;;;4944353;28;20054;-86
2022/11/19 05:51:02;;;;;;;9.80;3.67;;;-0.80;99.90;;;;;;4946176;29;20041;-88
2022/11/19 05:53:27;;;;;;;7.45;3.20;;;-0.80;99.90;;;;;;4946725;29;20654;-87
2022/11/19 05:55:53;;;;;;;9.52;4.22;;;-0.80;99.90;;;;;;4946006;29;20455;-88
2022/11/19 05:58:19;;;;;;;9.38;3.78;;;-0.80;99.90;;;;;;4947535;29;20480;-87
2022/11/19 06:00:44;;;;;;;11.00;4.32;;;-0.80;99.90;;;;;;4944877;28;20069;-90
2022/11/19 06:03:10;;;;;;;10.32;3.40;;;-0.80;99.90;;;;;;4941368;29;20039;-90
2022/11/19 06:05:36;;;;;;;8.65;3.33;;;-0.90;99.90;;;;;;4940547;29;20050;-86
2022/11/19 06:08:01;;;;;;;10.65;4.30;;;-0.90;99.90;;;;;;4940435;28;20062;-86
2022/11/19 06:10:27;;;;;;;11.07;4.40;;;-0.90;99.90;;;;;;4941101;29;20047;-84
2022/11/19 06:12:52;;;;;;;10.60;3.78;;;-0.90;99.90;;;;;;4939538;29;20043;-86
2022/11/19 06:15:18;;;;;;;8.13;3.60;;;-0.90;99.90;;;;;;4941598;29;20447;-88
2022/11/19 06:17:44;;;;;;;10.65;4.30;;;-0.90;99.90;;;;;;4925591;29;20056;-85
2022/11/19 06:20:10;;;;;;;11.35;4.55;;;-0.90;99.90;;;;;;4940585;29;20413;-87
2022/11/19 06:22:37;;;;;;;7.55;3.33;;;-0.90;99.90;;;;;;4924081;29;20288;-86
2022/11/19 06:25:04;;;;;;;10.55;4.38;;;-0.90;99.90;;;;;;4945181;28;20098;-84
2022/11/19 06:27:30;;;;;;;12.57;4.50;;;-0.90;99.90;;;;;;4948436;28;20122;-86
2022/11/19 06:29:55;;;;;;;11.18;5.25;;;-1.00;99.90;;;;;;4959116;28;20603;-86
2022/11/19 06:32:21;;;;;;;11.40;5.53;;;-0.90;99.90;;;;;;4945413;28;20125;-85
2022/11/19 06:34:46;;;;;;;13.45;5.60;;;-1.00;99.90;;;;;;4953926;28;20049;-84
2022/11/19 06:37:12;;;;;;;13.02;5.07;;;-1.00;99.90;;;;;;4956627;28;20054;-85
2022/11/19 06:39:37;;;;;;;13.50;5.88;;;-1.00;99.90;;;;;;4946480;28;20958;-86
2022/11/19 06:44:47;;;;;;;11.02;4.60;;;-1.00;99.90;;;;;;4963112;28;20134;-86
2022/11/19 06:47:13;;;;;;;12.65;5.43;;;-1.00;99.90;;;;;;4965627;28;20074;-86
2022/11/19 06:49:38;;;;;;;11.32;5.13;;;-1.00;99.90;;;;;;4940056;28;20046;-84
2022/11/19 06:52:04;;;;;;;13.40;5.55;;;-1.10;99.90;;;;;;4961945;28;20815;-87
2022/11/19 06:54:29;;;;;;;12.25;5.70;;;-1.10;99.90;;;;;;4957674;28;20130;-85
2022/11/19 06:56:55;;;;;;;11.57;5.57;;;-1.10;99.90;;;;;;4945488;28;20078;-86
2022/11/19 06:59:21;;;;;;;12.70;5.95;;;-1.10;99.90;;;;;;4947906;28;20043;-85
2022/11/19 07:01:46;;;;;;;11.52;5.07;;;-1.10;99.90;;;;;;4941122;28;20039;-84
2022/11/19 07:04:12;;;;;;;10.98;4.90;;;-1.10;99.90;;;;;;4962833;28;20460;-86
2022/11/19 07:06:37;;;;;;;13.30;5.50;;;-1.10;99.90;;;;;;4943920;28;20043;-91
2022/11/19 07:09:03;;;;;;;12.48;4.82;;;-1.10;99.90;;;;;;4930624;28;20134;-88
2022/11/19 07:11:29;;;;;;;10.82;4.85;;;-1.10;99.90;;;;;;4944174;28;20415;-86
2022/11/19 07:13:56;;;;;;;13.00;5.85;;;-1.10;99.90;;;;;;4943050;28;20151;-87
2022/11/19 07:16:22;;;;;;;13.18;5.53;;;-1.10;99.90;;;;;;4940421;28;20043;-87
2022/11/19 07:18:48;;;;;;;12.75;4.85;;;-1.10;99.90;;;;;;4961129;28;20632;-89
2022/11/19 07:21:14;;;;;;;12.40;5.82;;;-1.10;99.90;;;;;;4952285;28;20123;-89
2022/11/19 07:23:39;;;;;;;14.38;6.13;;;-1.10;99.90;;;;;;4962751;28;20488;-86
2022/11/19 07:26:05;;;;;;;12.52;5.72;;;-1.10;99.90;;;;;;4948110;28;20501;-87
2022/11/19 07:28:32;;;;;;;13.25;5.72;;;-1.10;99.90;;;;;;4920473;29;20044;-88
2022/11/19 07:30:58;;;;;;;13.68;6.15;;;-1.10;99.90;;;;;;4922979;29;20067;-90
2022/11/19 07:33:23;;;;;;;12.68;5.82;;;-1.10;99.90;;;;;;4925351;29;20135;-89
2022/11/19 07:35:49;;;;;;;12.02;5.47;;;-1.10;99.90;;;;;;4907527;29;20039;-91
2022/11/19 07:38:15;;;;;;;13.65;5.63;;;-1.00;99.90;;;;;;4923552;29;20047;-86
2022/11/19 07:40:40;;;;;;;13.70;6.32;;;-1.00;99.90;;;;;;4921152;29;20733;-86
2022/11/19 07:43:06;;;;;;;12.10;6.38;;;-1.00;99.90;;;;;;4921427;29;20150;-88
2022/11/19 07:45:31;;;;;;;15.25;6.53;;;-1.00;99.90;;;;;;4920923;29;20043;-86
2022/11/19 07:47:57;;;;;;;12.23;5.10;;;-1.00;99.90;;;;;;4922240;29;20043;-86
2022/11/19 07:50:22;;;;;;;11.98;6.00;;;-1.00;99.90;;;;;;4947568;29;20070;-89
2022/11/19 07:52:48;;;;;;;13.15;5.28;;;-1.00;99.90;;;;;;4914722;29;20560;-89
2022/11/19 07:55:14;;;;;;;14.65;5.95;;;-1.00;99.90;;;;;;4926125;29;20044;-86
2022/11/19 07:57:40;;;;;;;15.25;5.97;;;-0.90;99.90;;;;;;4927446;29;20437;-85
2022/11/19 08:00:06;;;;;;;13.18;5.88;;;-0.90;99.90;;;;;;4922800;29;20078;-89
2022/11/19 08:02:32;;;;;;;12.57;5.68;;;-0.90;99.90;;;;;;4922482;29;20047;-87
2022/11/19 08:04:58;;;;;;;10.82;4.75;;;-0.90;99.90;;;;;;4920031;29;20058;-86
2022/11/19 08:07:23;;;;;;;12.32;5.03;;;-0.90;99.90;;;;;;4928688;29;20090;-88
2022/11/19 08:09:49;;;;;;;13.55;5.75;;;-0.90;99.90;;;;;;4915038;29;20059;-88
2022/11/19 08:12:14;;;;;;;12.20;5.63;;;-0.80;99.90;;;;;;4921050;29;20068;-85
2022/11/19 08:14:40;;;;;;;12.55;4.88;;;-0.80;99.90;;;;;;4927782;29;20136;-86
2022/11/19 08:19:49;;;;;;;13.73;6.35;;;-0.80;99.90;;;;;;4924593;29;20122;-87
2022/11/19 08:22:15;;;;;;;12.82;5.38;;;-0.80;99.90;;;;;;4922548;29;20135;-83
2022/11/19 08:24:41;;;;;;;13.35;5.35;;;-0.80;99.90;;;;;;4925606;28;20047;-86
2022/11/19 08:27:06;;;;;;;12.77;4.78;;;-0.80;99.90;;;;;;4941027;28;20113;-87
2022/11/19 08:29:32;;;;;;;14.88;5.15;;;-0.70;99.90;;;;;;4935101;28;20471;-85
2022/11/19 08:31:57;;;;;;;11.15;4.30;;;-0.70;99.90;;;;;;4941829;28;20058;-88
2022/11/19 08:34:23;;;;;;;12.68;5.68;;;-0.70;99.90;;;;;;4976796;28;20090;-86
2022/11/19 08:36:49;;;;;;;11.55;4.78;;;-0.70;99.90;;;;;;4947009;29;20042;-85
2022/11/19 08:39:15;;;;;;;13.82;4.63;;;-0.70;99.90;;;;;;4944774;28;20110;-86
2022/11/19 08:44:25;;;;;;;14.50;5.32;;;-0.60;99.90;;;;;;4966664;28;20069;-87
2022/11/19 08:46:50;;;;;;;12.30;4.60;;;-0.60;99.90;;;;;;4943488;28;20547;-87
2022/11/19 08:49:16;;;;;;;11.38;4.45;;;-0.60;99.90;;;;;;4941029;28;20082;-88
2022/11/19 08:51:42;;;;;;;13.15;5.50;;;-0.50;99.90;;;;;;4943673;28;20187;-88
2022/11/19 08:54:08;;;;;;;12.02;5.07;;;-0.50;99.90;;;;;;4943441;28;20492;-90
2022/11/19 08:56:33;;;;;;;16.00;5.35;;;-0.50;99.90;;;;;;4967223;28;20090;-89
2022/11/19 08:58:59;;;;;;;13.65;5.25;;;-0.40;99.90;;;;;;4961257;28;20355;-91
2022/11/19 09:01:25;;;;;;;12.25;5.60;;;-0.40;99.90;;;;;;4930120;28;20696;-89
2022/11/19 09:03:50;;;;;;;10.93;5.07;;;-0.40;99.90;;;;;;4964249;28;20042;-85
2022/11/19 09:06:16;;;;;;;11.52;4.25;;;-0.40;99.90;;;;;;4963985;28;20047;-89
2022/11/19 09:08:42;;;;;;;13.13;5.60;;;-0.20;99.90;;;;;;4941176;28;20118;-90
2022/11/19 09:11:14;;;;;;;11.48;4.65;;;-0.20;99.90;;;;;;4946069;28;20042;-87
2022/11/19 09:13:40;;;;;;;12.93;6.07;;;-0.20;99.90;;;;;;4945660;28;20134;-86
2022/11/19 09:16:06;;;;;;;12.93;5.82;;;-0.10;99.90;;;;;;4942039;28;20039;-90
2022/11/19 09:18:33;;;;;;;14.00;6.28;;;-0.10;99.90;;;;;;4929469;28;20077;-92
2022/11/19 09:20:59;;;;;;;12.68;5.82;;;-0.10;99.90;;;;;;4950683;28;20054;-92
2022/11/19 09:23:26;;;;;;;13.82;6.15;;;-0.10;99.90;;;;;;4968021;28;20054;-87
2022/11/19 09:26:02;;;;;;;14.73;6.18;;;0.00;99.90;;;;;;4964621;28;20090;-93
2022/11/19 09:28:29;;;;;;;13.57;6.03;;;0.00;99.90;;;;;;4950704;28;20059;-92
2022/11/19 09:31:09;;;;;;;10.73;5.07;;;0.10;99.90;;;;;;4927571;28;20043;-93
2022/11/19 09:33:37;;;;;;;12.95;5.20;;;0.10;99.90;;;;;;4943607;28;20050;-88
2022/11/19 09:36:03;;;;;;;13.18;5.00;;;0.20;99.90;;;;;;4951003;28;20097;-89
2022/11/19 09:38:33;;;;;;;12.00;4.90;;;0.20;99.90;;;;;;4947131;28;20399;-87
2022/11/19 09:41:23;;;;;;;11.80;5.20;;;0.20;99.90;;;;;;4952528;28;20107;-89
2022/11/19 09:44:04;;;;;;;14.88;6.03;;;0.30;99.90;;;;;;4950583;28;20078;-90
2022/11/19 09:46:42;;;;;;;12.18;5.05;;;0.30;99.90;;;;;;4969003;28;20039;-87
2022/11/19 09:49:15;;;;;;;12.27;4.50;;;0.30;99.90;;;;;;4933553;28;20105;-90
2022/11/19 09:51:48;;;;;;;12.30;4.97;;;0.40;99.90;;;;;;4963572;28;20041;-90
2022/11/19 09:54:17;;;;;;;11.73;5.15;;;0.30;99.90;;;;;;4937422;28;20104;-90
2022/11/19 09:56:45;;;;;;;10.85;5.50;;;0.40;99.90;;;;;;4943531;28;20043;-89
2022/11/19 09:59:29;;;;;;;12.05;5.57;;;0.50;99.90;;;;;;4959494;28;20126;-91
2022/11/19 10:01:55;;;;;;;11.60;5.25;;;0.50;99.90;;;;;;4933443;28;20058;-90
2022/11/19 10:04:30;;;;;;;12.52;5.95;;;0.50;99.90;;;;;;4945940;28;20055;-91
2022/11/19 10:07:25;;;;;;;10.30;4.47;;;0.50;99.90;;;;;;4941542;28;20050;-94
2022/11/19 10:10:11;;;;;;;12.70;5.25;;;0.60;99.90;;;;;;4933046;28;20094;-93
2022/11/19 10:13:10;;;;;;;11.68;5.43;;;0.60;99.90;;;;;;4946200;28;20054;-92
2022/11/19 10:15:51;;;;;;;11.80;5.90;;;0.60;99.90;;;;;;4953019;28;20514;-87
2022/11/19 10:18:20;;;;;;;14.38;6.32;;;0.70;99.90;;;;;;4942912;28;20063;-88
2022/11/19 10:20:54;;;;;;;11.27;5.38;;;0.70;99.90;;;;;;4946657;28;20113;-92
2022/11/19 10:23:59;;;;;;;13.48;5.60;;;0.70;99.90;;;;;;4947060;28;20103;-90
2022/11/19 10:26:33;;;;;;;13.07;6.10;;;0.70;99.90;;;;;;4963239;28;20054;-88
2022/11/19 10:29:00;;;;;;;13.43;5.95;;;0.80;99.90;;;;;;4960323;28;20390;-89
2022/11/19 10:31:35;;;;;;;11.93;5.47;;;0.80;99.90;;;;;;4958958;28;20043;-93
2022/11/19 10:34:14;;;;;;;10.98;5.05;;;0.80;99.90;;;;;;4961901;28;20126;-89
2022/11/19 10:36:41;;;;;;;10.98;5.03;;;0.90;99.90;;;;;;4945746;28;20133;-88
2022/11/19 10:39:26;;;;;;;10.40;4.43;;;0.90;99.90;;;;;;4947722;28;20486;-88
2022/11/19 10:42:13;;;;;;;12.50;5.75;;;0.90;99.90;;;;;;4942672;29;20047;-88
2022/11/19 10:44:46;;;;;;;10.60;4.45;;;0.90;99.90;;;;;;4943542;28;20061;-87
2022/11/19 10:47:33;;;;;;;10.65;5.03;;;1.00;99.90;;;;;;4948196;28;20436;-88
2022/11/19 10:49:59;;;;;;;11.52;5.22;;;1.00;99.90;;;;;;4939306;28;20062;-89
2022/11/19 10:52:38;;;;;;;10.73;5.00;;;1.00;99.90;;;;;;4967889;28;20042;-87
2022/11/19 10:55:22;;;;;;;11.15;4.93;;;1.10;99.90;;;;;;4937012;28;20055;-87
2022/11/19 10:57:51;;;;;;;9.70;4.85;;;1.10;99.90;;;;;;4956056;28;20039;-89
2022/11/19 11:00:17;;;;;;;10.05;4.10;;;1.20;99.90;;;;;;4927483;28;20054;-89
2022/11/19 11:02:55;;;;;;;10.10;4.72;;;1.20;99.90;;;;;;4956565;28;20377;-87
2022/11/19 11:05:21;;;;;;;12.88;4.65;;;1.20;99.90;;;;;;4944104;28;20058;-93
2022/11/19 11:07:52;;;;;;;11.45;4.45;;;1.20;99.90;;;;;;4930010;29;20405;-88
2022/11/19 11:10:31;;;;;;;10.93;4.68;;;1.30;99.90;;;;;;4947290;28;20162;-94
2022/11/19 11:16:05;;;;;;;9.77;4.60;;;1.40;99.90;;;;;;4970170;28;20235;-90
2022/11/19 11:18:31;;;;;;;11.27;4.68;;;1.40;99.90;;;;;;4950526;28;20059;-95
2022/11/19 11:20:58;;;;;;;9.02;3.90;;;1.50;99.90;;;;;;4947279;28;20519;-93
2022/11/19 11:23:26;;;;;;;9.82;4.53;;;1.40;99.90;;;;;;4926559;29;20043;-90
2022/11/19 11:26:05;;;;;;;12.55;5.43;;;1.50;99.90;;;;;;4946707;28;20062;-91
2022/11/19 11:28:31;;;;;;;10.43;4.68;;;1.50;99.90;;;;;;4947783;28;20047;-95
2022/11/19 11:30:58;;;;;;;11.93;4.30;;;1.50;99.90;;;;;;4979320;28;20081;-91
2022/11/19 11:33:23;;;;;;;9.57;3.92;;;1.60;99.90;;;;;;4952065;28;20067;-87
2022/11/19 11:35:51;;;;;;;10.07;3.60;;;1.60;99.90;;;;;;4949406;28;20050;-92
2022/11/19 11:38:21;;;;;;;9.13;3.92;;;1.60;99.90;;;;;;4935031;28;20047;-91
2022/11/19 11:41:06;;;;;;;8.88;4.10;;;1.60;99.90;;;;;;4945895;28;20058;-92
2022/11/19 11:43:36;;;;;;;9.32;3.75;;;1.70;99.90;;;;;;4932478;29;20039;-92
2022/11/19 11:46:06;;;;;;;10.68;4.60;;;1.70;99.90;;;;;;4950430;28;20031;-92
2022/11/19 11:48:51;;;;;;;11.30;4.40;;;1.70;99.90;;;;;;4931893;28;20099;-90
2022/11/19 11:51:32;;;;;;;10.90;4.68;;;1.80;99.90;;;;;;4929044;28;20078;-88
2022/11/19 11:54:16;;;;;;;9.50;4.22;;;1.80;99.90;;;;;;4946479;28;20047;-88
2022/11/19 11:56:43;;;;;;;9.43;4.25;;;1.80;99.90;;;;;;4930988;28;20043;-94
2022/11/19 11:59:19;;;;;;;10.40;4.30;;;1.80;99.90;;;;;;4946124;28;20039;-86
2022/11/19 12:02:06;;;;;;;9.75;4.72;;;1.90;99.90;;;;;;4941513;28;20485;-91
2022/11/19 12:04:33;;;;;;;10.85;4.70;;;1.90;99.90;;;;;;4938336;28;20163;-92
2022/11/19 12:07:08;;;;;;;10.65;4.70;;;1.90;99.90;;;;;;4939181;28;20047;-92
2022/11/19 12:09:53;;;;;;;9.85;4.82;;;1.90;99.90;;;;;;4960324;28;20039;-91
2022/11/19 12:12:35;;;;;;;11.20;4.47;;;1.90;99.90;;;;;;4951480;28;20115;-89
2022/11/19 12:15:17;;;;;;;8.50;4.10;;;1.90;99.90;;;;;;4967379;28;20162;-86
2022/11/19 12:17:57;;;;;;;8.90;3.78;;;2.00;99.90;;;;;;4941745;28;20043;-90
2022/11/19 12:20:52;;;;;;;9.25;3.90;;;2.00;99.90;;;;;;4947820;28;20051;-87
2022/11/19 12:23:40;;;;;;;9.30;3.78;;;2.00;99.90;;;;;;4968802;28;20403;-90
2022/11/19 12:26:13;;;;;;;8.27;3.65;;;2.10;99.90;;;;;;4946158;28;20078;-87
2022/11/19 12:28:54;;;;;;;8.73;3.65;;;2.10;99.90;;;;;;4942302;28;20074;-87
2022/11/19 12:31:38;;;;;;;9.77;4.30;;;2.10;99.90;;;;;;4960635;28;20046;-88
2022/11/19 12:34:22;;;;;;;10.35;4.50;;;2.10;99.90;;;;;;4954630;28;20055;-87
2022/11/19 12:37:24;;;;;;;11.40;4.35;;;2.10;99.90;;;;;;4956537;28;20118;-85
2022/11/19 12:40:18;;;;;;;10.15;3.95;;;2.10;99.90;;;;;;4939644;28;20049;-88
2022/11/19 12:43:10;;;;;;;9.75;4.10;;;2.20;99.90;;;;;;4937731;28;20082;-89
2022/11/19 12:46:06;;;;;;;9.25;3.65;;;2.10;99.90;;;;;;4907204;28;20460;-87
2022/11/19 12:48:50;;;;;;;10.05;4.63;;;2.20;99.90;;;;;;4965433;28;20043;-91
2022/11/19 12:51:34;;;;;;;8.68;3.50;;;2.20;99.90;;;;;;4964050;28;20412;-89
2022/11/19 12:54:30;;;;;;;10.25;4.30;;;2.30;99.90;;;;;;4959842;28;20215;-90
2022/11/19 12:57:33;;;;;;;10.45;3.95;;;2.30;99.90;;;;;;4942639;28;20074;-93
2022/11/19 13:00:11;;;;;;;9.98;4.22;;;2.30;99.90;;;;;;4961899;28;20105;-89
2022/11/19 13:02:41;;;;;;;8.35;3.30;;;2.30;99.90;;;;;;4946051;28;20118;-85
2022/11/19 13:05:16;;;;;;;8.88;3.45;;;2.30;99.90;;;;;;4979180;28;20039;-88
2022/11/19 13:08:04;;;;;;;10.00;4.13;;;2.40;99.90;;;;;;4967405;28;20043;-90
2022/11/19 13:10:43;;;;;;;9.68;3.92;;;2.40;99.90;;;;;;4903624;28;20051;-89
2022/11/19 13:13:13;;;;;;;9.40;3.78;;;2.40;99.90;;;;;;4952810;28;20086;-85
2022/11/19 13:15:44;;;;;;;8.38;3.83;;;2.40;99.90;;;;;;4964700;28;20038;-91
2022/11/19 13:18:15;;;;;;;8.73;4.05;;;2.40;99.90;;;;;;4947771;28;20043;-88
2022/11/19 13:20:52;;;;;;;9.48;4.03;;;2.50;99.90;;;;;;4947825;28;20167;-89
2022/11/19 13:23:32;;;;;;;9.38;3.67;;;2.50;99.90;;;;;;4959529;28;20039;-92
2022/11/19 13:26:03;;;;;;;9.30;3.88;;;2.50;99.90;;;;;;4935630;28;20063;-87
2022/11/19 13:28:38;;;;;;;9.32;3.15;;;2.40;99.90;;;;;;4965163;28;20058;-90
2022/11/19 13:31:20;;;;;;;7.55;3.15;;;2.40;99.90;;;;;;4966372;28;20039;-89
2022/11/19 13:33:54;;;;;;;9.48;3.85;;;2.50;99.90;;;;;;4970582;28;20054;-91
2022/11/19 13:36:34;;;;;;;9.00;3.60;;;2.50;99.90;;;;;;4943426;28;20051;-93